sensor_id;sensor_type;location;lat;lon;timestamp;P1;durP1;ratioP1;P2;durP2;ratioP2
75272;SDS011;63869;52.344;16.928;2023-01-01T00:01:26;20.48;;;11.48;;
75272;SDS011;63869;52.344;16.928;2023-01-01T00:03:53;21.65;;;11.82;;
75272;SDS011;63869;52.344;16.928;2023-01-01T00:06:20;20.65;;;11.30;;
75272;SDS011;63869;52.344;16.928;2023-01-01T00:08:46;16.90;;;10.85;;
75272;SDS011;63869;52.344;16.928;2023-01-01T00:11:12;19.23;;;10.82;;
75272;SDS011;63869;52.344;16.928;2023-01-01T00:13:38;20.58;;;10.40;;
75272;SDS011;63869;52.344;16.928;2023-01-01T00:18:35;17.60;;;9.98;;
75272;SDS011;63869;52.344;16.928;2023-01-01T00:21:02;16.02;;;9.38;;
75272;SDS011;63869;52.344;16.928;2023-01-01T00:23:27;17.15;;;9.90;;
75272;SDS011;63869;52.344;16.928;2023-01-01T00:25:53;18.60;;;10.05;;
75272;SDS011;63869;52.344;16.928;2023-01-01T00:28:18;14.00;;;9.10;;
75272;SDS011;63869;52.344;16.928;2023-01-01T00:30:43;16.23;;;8.80;;
75272;SDS011;63869;52.344;16.928;2023-01-01T00:33:08;14.48;;;8.80;;
75272;SDS011;63869;52.344;16.928;2023-01-01T00:35:34;13.82;;;8.13;;
75272;SDS011;63869;52.344;16.928;2023-01-01T00:37:59;15.15;;;8.30;;
75272;SDS011;63869;52.344;16.928;2023-01-01T00:40:24;14.18;;;8.10;;
75272;SDS011;63869;52.344;16.928;2023-01-01T00:42:50;11.27;;;7.75;;
75272;SDS011;63869;52.344;16.928;2023-01-01T00:45:15;12.65;;;7.95;;
75272;SDS011;63869;52.344;16.928;2023-01-01T00:47:41;12.10;;;7.00;;
75272;SDS011;63869;52.344;16.928;2023-01-01T00:50:06;12.27;;;6.30;;
75272;SDS011;63869;52.344;16.928;2023-01-01T00:52:31;11.93;;;6.35;;
75272;SDS011;63869;52.344;16.928;2023-01-01T00:54:57;8.95;;;5.30;;
75272;SDS011;63869;52.344;16.928;2023-01-01T00:57:22;7.97;;;5.00;;
75272;SDS011;63869;52.344;16.928;2023-01-01T00:59:47;9.65;;;5.10;;
75272;SDS011;63869;52.344;16.928;2023-01-01T01:02:13;8.55;;;4.65;;
75272;SDS011;63869;52.344;16.928;2023-01-01T01:04:38;7.10;;;4.38;;
75272;SDS011;63869;52.344;16.928;2023-01-01T01:07:03;8.38;;;4.00;;
75272;SDS011;63869;52.344;16.928;2023-01-01T01:09:29;8.45;;;4.18;;
75272;SDS011;63869;52.344;16.928;2023-01-01T01:11:54;6.40;;;3.65;;
75272;SDS011;63869;52.344;16.928;2023-01-01T01:14:19;5.97;;;3.60;;
75272;SDS011;63869;52.344;16.928;2023-01-01T01:16:45;7.40;;;3.35;;
75272;SDS011;63869;52.344;16.928;2023-01-01T01:19:10;6.90;;;3.20;;
75272;SDS011;63869;52.344;16.928;2023-01-01T01:21:39;6.07;;;3.50;;
75272;SDS011;63869;52.344;16.928;2023-01-01T01:24:04;5.63;;;3.40;;
75272;SDS011;63869;52.344;16.928;2023-01-01T01:26:31;5.68;;;3.10;;
75272;SDS011;63869;52.344;16.928;2023-01-01T01:28:57;5.55;;;3.08;;
75272;SDS011;63869;52.344;16.928;2023-01-01T01:31:25;4.90;;;2.95;;
75272;SDS011;63869;52.344;16.928;2023-01-01T01:33:52;5.38;;;2.97;;
75272;SDS011;63869;52.344;16.928;2023-01-01T01:36:17;5.32;;;2.97;;
75272;SDS011;63869;52.344;16.928;2023-01-01T01:38:43;6.30;;;3.17;;
75272;SDS011;63869;52.344;16.928;2023-01-01T01:41:10;8.07;;;3.53;;
75272;SDS011;63869;52.344;16.928;2023-01-01T01:46:07;5.43;;;3.17;;
75272;SDS011;63869;52.344;16.928;2023-01-01T01:51:03;6.75;;;3.03;;
75272;SDS011;63869;52.344;16.928;2023-01-01T01:53:29;6.25;;;3.40;;
75272;SDS011;63869;52.344;16.928;2023-01-01T01:56:02;6.03;;;3.20;;
75272;SDS011;63869;52.344;16.928;2023-01-01T01:58:31;4.68;;;2.90;;
75272;SDS011;63869;52.344;16.928;2023-01-01T02:00:58;4.80;;;2.88;;
75272;SDS011;63869;52.344;16.928;2023-01-01T02:03:26;5.10;;;2.88;;
75272;SDS011;63869;52.344;16.928;2023-01-01T02:05:55;6.80;;;2.88;;
75272;SDS011;63869;52.344;16.928;2023-01-01T02:08:21;5.68;;;3.10;;
75272;SDS011;63869;52.344;16.928;2023-01-01T02:10:47;5.47;;;2.80;;
75272;SDS011;63869;52.344;16.928;2023-01-01T02:13:12;7.15;;;3.13;;
75272;SDS011;63869;52.344;16.928;2023-01-01T02:15:41;5.10;;;3.03;;
75272;SDS011;63869;52.344;16.928;2023-01-01T02:18:17;5.47;;;3.17;;
75272;SDS011;63869;52.344;16.928;2023-01-01T02:20:53;6.75;;;3.17;;
75272;SDS011;63869;52.344;16.928;2023-01-01T02:23:41;6.38;;;3.65;;
75272;SDS011;63869;52.344;16.928;2023-01-01T02:31:41;5.80;;;3.33;;
75272;SDS011;63869;52.344;16.928;2023-01-01T02:34:11;6.60;;;3.33;;
75272;SDS011;63869;52.344;16.928;2023-01-01T02:36:42;4.97;;;2.92;;
75272;SDS011;63869;52.344;16.928;2023-01-01T02:39:18;7.25;;;3.17;;
75272;SDS011;63869;52.344;16.928;2023-01-01T02:41:47;5.97;;;3.28;;
75272;SDS011;63869;52.344;16.928;2023-01-01T02:44:17;6.45;;;2.97;;
75272;SDS011;63869;52.344;16.928;2023-01-01T02:46:43;7.15;;;3.10;;
75272;SDS011;63869;52.344;16.928;2023-01-01T02:49:09;9.25;;;3.10;;
75272;SDS011;63869;52.344;16.928;2023-01-01T03:00:00;5.43;;;2.95;;
75272;SDS011;63869;52.344;16.928;2023-01-01T03:05:59;5.32;;;2.85;;
75272;SDS011;63869;52.344;16.928;2023-01-01T03:11:26;4.40;;;3.00;;
75272;SDS011;63869;52.344;16.928;2023-01-01T03:14:20;6.03;;;2.70;;
75272;SDS011;63869;52.344;16.928;2023-01-01T03:17:02;4.93;;;2.90;;
75272;SDS011;63869;52.344;16.928;2023-01-01T03:19:34;5.07;;;3.00;;
75272;SDS011;63869;52.344;16.928;2023-01-01T03:22:04;4.65;;;2.97;;
75272;SDS011;63869;52.344;16.928;2023-01-01T03:24:40;5.47;;;2.92;;
75272;SDS011;63869;52.344;16.928;2023-01-01T03:27:28;5.65;;;3.20;;
75272;SDS011;63869;52.344;16.928;2023-01-01T03:29:58;5.95;;;3.28;;
75272;SDS011;63869;52.344;16.928;2023-01-01T03:32:28;4.85;;;3.17;;
75272;SDS011;63869;52.344;16.928;2023-01-01T03:35:19;7.10;;;3.22;;
75272;SDS011;63869;52.344;16.928;2023-01-01T03:37:48;4.68;;;3.40;;
75272;SDS011;63869;52.344;16.928;2023-01-01T03:40:16;8.00;;;3.67;;
75272;SDS011;63869;52.344;16.928;2023-01-01T03:42:45;5.65;;;3.45;;
75272;SDS011;63869;52.344;16.928;2023-01-01T03:45:50;7.35;;;3.53;;
75272;SDS011;63869;52.344;16.928;2023-01-01T03:48:10;5.00;;;3.15;;
75272;SDS011;63869;52.344;16.928;2023-01-01T03:50:45;7.50;;;4.28;;
75272;SDS011;63869;52.344;16.928;2023-01-01T03:53:38;7.38;;;4.25;;
75272;SDS011;63869;52.344;16.928;2023-01-01T04:01:35;6.32;;;3.75;;
75272;SDS011;63869;52.344;16.928;2023-01-01T04:04:05;6.28;;;4.03;;
75272;SDS011;63869;52.344;16.928;2023-01-01T04:06:32;7.07;;;3.90;;
75272;SDS011;63869;52.344;16.928;2023-01-01T04:08:58;7.63;;;4.18;;
75272;SDS011;63869;52.344;16.928;2023-01-01T04:11:26;7.10;;;4.20;;
75272;SDS011;63869;52.344;16.928;2023-01-01T04:14:12;7.13;;;4.60;;
75272;SDS011;63869;52.344;16.928;2023-01-01T04:16:38;7.18;;;4.30;;
75272;SDS011;63869;52.344;16.928;2023-01-01T04:19:03;8.40;;;4.88;;
75272;SDS011;63869;52.344;16.928;2023-01-01T04:21:31;6.78;;;4.47;;
75272;SDS011;63869;52.344;16.928;2023-01-01T04:23:56;8.70;;;4.88;;
75272;SDS011;63869;52.344;16.928;2023-01-01T04:26:22;8.45;;;4.80;;
75272;SDS011;63869;52.344;16.928;2023-01-01T04:28:47;9.30;;;5.18;;
75272;SDS011;63869;52.344;16.928;2023-01-01T04:31:12;7.38;;;5.07;;
75272;SDS011;63869;52.344;16.928;2023-01-01T04:33:37;7.55;;;5.15;;
75272;SDS011;63869;52.344;16.928;2023-01-01T04:36:06;7.30;;;4.47;;
75272;SDS011;63869;52.344;16.928;2023-01-01T04:38:33;7.22;;;4.68;;
75272;SDS011;63869;52.344;16.928;2023-01-01T04:41:00;7.50;;;4.90;;
75272;SDS011;63869;52.344;16.928;2023-01-01T04:43:26;7.88;;;4.78;;
75272;SDS011;63869;52.344;16.928;2023-01-01T04:45:55;8.38;;;4.93;;
75272;SDS011;63869;52.344;16.928;2023-01-01T04:48:21;9.00;;;5.05;;
75272;SDS011;63869;52.344;16.928;2023-01-01T04:50:52;9.73;;;5.55;;
75272;SDS011;63869;52.344;16.928;2023-01-01T04:53:22;8.60;;;4.72;;
75272;SDS011;63869;52.344;16.928;2023-01-01T04:55:47;9.35;;;4.85;;
75272;SDS011;63869;52.344;16.928;2023-01-01T04:58:12;8.38;;;4.97;;
75272;SDS011;63869;52.344;16.928;2023-01-01T05:00:37;10.52;;;5.20;;
75272;SDS011;63869;52.344;16.928;2023-01-01T05:03:03;8.65;;;4.80;;
75272;SDS011;63869;52.344;16.928;2023-01-01T05:05:28;8.70;;;4.82;;
75272;SDS011;63869;52.344;16.928;2023-01-01T05:07:53;8.27;;;4.53;;
75272;SDS011;63869;52.344;16.928;2023-01-01T05:10:18;10.32;;;4.60;;
75272;SDS011;63869;52.344;16.928;2023-01-01T05:12:44;6.75;;;4.32;;
75272;SDS011;63869;52.344;16.928;2023-01-01T05:15:09;8.63;;;4.55;;
75272;SDS011;63869;52.344;16.928;2023-01-01T05:17:34;7.93;;;4.25;;
75272;SDS011;63869;52.344;16.928;2023-01-01T05:20:00;8.98;;;4.25;;
75272;SDS011;63869;52.344;16.928;2023-01-01T05:22:25;9.48;;;4.30;;
75272;SDS011;63869;52.344;16.928;2023-01-01T05:24:50;7.20;;;3.75;;
75272;SDS011;63869;52.344;16.928;2023-01-01T05:27:16;7.60;;;3.80;;
75272;SDS011;63869;52.344;16.928;2023-01-01T05:29:41;7.68;;;4.00;;
75272;SDS011;63869;52.344;16.928;2023-01-01T05:32:06;7.88;;;4.30;;
75272;SDS011;63869;52.344;16.928;2023-01-01T05:34:32;6.60;;;3.53;;
75272;SDS011;63869;52.344;16.928;2023-01-01T05:36:57;5.57;;;3.30;;
75272;SDS011;63869;52.344;16.928;2023-01-01T05:39:22;5.18;;;3.38;;
75272;SDS011;63869;52.344;16.928;2023-01-01T05:41:48;8.85;;;3.83;;
75272;SDS011;63869;52.344;16.928;2023-01-01T05:44:13;5.93;;;3.50;;
75272;SDS011;63869;52.344;16.928;2023-01-01T05:46:40;7.72;;;3.42;;
75272;SDS011;63869;52.344;16.928;2023-01-01T05:49:08;6.45;;;3.35;;
75272;SDS011;63869;52.344;16.928;2023-01-01T05:51:34;10.88;;;3.80;;
75272;SDS011;63869;52.344;16.928;2023-01-01T05:54:00;7.15;;;3.28;;
75272;SDS011;63869;52.344;16.928;2023-01-01T05:56:26;11.13;;;4.03;;
75272;SDS011;63869;52.344;16.928;2023-01-01T05:58:51;7.30;;;3.45;;
75272;SDS011;63869;52.344;16.928;2023-01-01T06:01:20;5.78;;;3.30;;
75272;SDS011;63869;52.344;16.928;2023-01-01T06:03:47;7.60;;;3.20;;
75272;SDS011;63869;52.344;16.928;2023-01-01T06:06:14;7.40;;;3.47;;
75272;SDS011;63869;52.344;16.928;2023-01-01T06:08:41;10.18;;;3.78;;
75272;SDS011;63869;52.344;16.928;2023-01-01T06:11:12;7.88;;;3.20;;
75272;SDS011;63869;52.344;16.928;2023-01-01T06:13:37;6.75;;;3.30;;
75272;SDS011;63869;52.344;16.928;2023-01-01T06:16:03;7.95;;;3.42;;
75272;SDS011;63869;52.344;16.928;2023-01-01T06:18:29;6.22;;;3.08;;
75272;SDS011;63869;52.344;16.928;2023-01-01T06:21:10;5.95;;;2.97;;
75272;SDS011;63869;52.344;16.928;2023-01-01T06:23:37;6.28;;;2.90;;
75272;SDS011;63869;52.344;16.928;2023-01-01T06:26:07;6.05;;;3.35;;
75272;SDS011;63869;52.344;16.928;2023-01-01T06:28:37;7.05;;;3.00;;
75272;SDS011;63869;52.344;16.928;2023-01-01T06:31:03;4.47;;;3.00;;
75272;SDS011;63869;52.344;16.928;2023-01-01T06:33:30;7.10;;;3.10;;
75272;SDS011;63869;52.344;16.928;2023-01-01T06:35:56;5.07;;;2.90;;
75272;SDS011;63869;52.344;16.928;2023-01-01T06:38:21;6.30;;;3.15;;
75272;SDS011;63869;52.344;16.928;2023-01-01T06:40:54;6.25;;;2.90;;
75272;SDS011;63869;52.344;16.928;2023-01-01T06:43:23;8.13;;;2.70;;
75272;SDS011;63869;52.344;16.928;2023-01-01T06:45:57;6.03;;;2.97;;
75272;SDS011;63869;52.344;16.928;2023-01-01T06:48:23;5.90;;;2.90;;
75272;SDS011;63869;52.344;16.928;2023-01-01T06:50:48;6.43;;;2.85;;
75272;SDS011;63869;52.344;16.928;2023-01-01T06:53:14;7.05;;;3.00;;
75272;SDS011;63869;52.344;16.928;2023-01-01T06:55:39;5.82;;;2.65;;
75272;SDS011;63869;52.344;16.928;2023-01-01T06:58:12;8.73;;;2.97;;
75272;SDS011;63869;52.344;16.928;2023-01-01T07:00:38;5.82;;;2.78;;
75272;SDS011;63869;52.344;16.928;2023-01-01T07:03:03;7.13;;;2.65;;
75272;SDS011;63869;52.344;16.928;2023-01-01T07:05:28;5.60;;;3.08;;
75272;SDS011;63869;52.344;16.928;2023-01-01T07:07:54;5.75;;;2.90;;
75272;SDS011;63869;52.344;16.928;2023-01-01T07:10:19;5.70;;;2.65;;
75272;SDS011;63869;52.344;16.928;2023-01-01T07:12:44;4.65;;;2.70;;
75272;SDS011;63869;52.344;16.928;2023-01-01T07:15:10;4.55;;;2.70;;
75272;SDS011;63869;52.344;16.928;2023-01-01T07:17:35;7.50;;;2.80;;
75272;SDS011;63869;52.344;16.928;2023-01-01T07:20:00;8.05;;;2.55;;
75272;SDS011;63869;52.344;16.928;2023-01-01T07:22:26;6.25;;;2.60;;
75272;SDS011;63869;52.344;16.928;2023-01-01T07:24:51;6.18;;;2.72;;
75272;SDS011;63869;52.344;16.928;2023-01-01T07:27:16;7.28;;;2.60;;
75272;SDS011;63869;52.344;16.928;2023-01-01T07:29:42;8.30;;;2.95;;
75272;SDS011;63869;52.344;16.928;2023-01-01T07:32:11;5.70;;;2.90;;
75272;SDS011;63869;52.344;16.928;2023-01-01T07:34:37;4.68;;;2.42;;
75272;SDS011;63869;52.344;16.928;2023-01-01T07:37:03;5.25;;;2.50;;
75272;SDS011;63869;52.344;16.928;2023-01-01T07:39:28;5.25;;;2.92;;
75272;SDS011;63869;52.344;16.928;2023-01-01T07:41:53;7.40;;;3.10;;
75272;SDS011;63869;52.344;16.928;2023-01-01T07:44:19;8.20;;;3.40;;
75272;SDS011;63869;52.344;16.928;2023-01-01T07:46:44;7.03;;;3.75;;
75272;SDS011;63869;52.344;16.928;2023-01-01T07:49:09;8.90;;;3.58;;
75272;SDS011;63869;52.344;16.928;2023-01-01T07:51:34;13.43;;;6.38;;
75272;SDS011;63869;52.344;16.928;2023-01-01T07:54:00;8.48;;;4.72;;
75272;SDS011;63869;52.344;16.928;2023-01-01T07:56:25;5.72;;;3.53;;
75272;SDS011;63869;52.344;16.928;2023-01-01T07:58:50;11.50;;;4.90;;
75272;SDS011;63869;52.344;16.928;2023-01-01T08:01:16;11.73;;;4.57;;
75272;SDS011;63869;52.344;16.928;2023-01-01T08:03:41;6.53;;;2.95;;
75272;SDS011;63869;52.344;16.928;2023-01-01T08:06:11;7.22;;;2.88;;
75272;SDS011;63869;52.344;16.928;2023-01-01T08:08:37;7.53;;;2.92;;
75272;SDS011;63869;52.344;16.928;2023-01-01T08:11:03;6.28;;;3.08;;
75272;SDS011;63869;52.344;16.928;2023-01-01T08:13:29;6.38;;;2.72;;
75272;SDS011;63869;52.344;16.928;2023-01-01T08:15:55;6.28;;;2.70;;
75272;SDS011;63869;52.344;16.928;2023-01-01T08:18:22;7.15;;;2.72;;
75272;SDS011;63869;52.344;16.928;2023-01-01T08:20:47;6.35;;;3.13;;
75272;SDS011;63869;52.344;16.928;2023-01-01T08:23:12;5.13;;;2.55;;
75272;SDS011;63869;52.344;16.928;2023-01-01T08:25:37;7.65;;;2.83;;
75272;SDS011;63869;52.344;16.928;2023-01-01T08:28:03;5.18;;;2.90;;
75272;SDS011;63869;52.344;16.928;2023-01-01T08:30:28;4.75;;;2.78;;
75272;SDS011;63869;52.344;16.928;2023-01-01T08:32:53;6.13;;;2.47;;
75272;SDS011;63869;52.344;16.928;2023-01-01T08:35:19;6.15;;;2.63;;
75272;SDS011;63869;52.344;16.928;2023-01-01T08:37:44;5.88;;;2.78;;
75272;SDS011;63869;52.344;16.928;2023-01-01T08:40:10;11.35;;;3.72;;
75272;SDS011;63869;52.344;16.928;2023-01-01T08:42:37;7.82;;;3.00;;
75272;SDS011;63869;52.344;16.928;2023-01-01T08:45:02;7.03;;;2.85;;
75272;SDS011;63869;52.344;16.928;2023-01-01T08:47:28;5.10;;;2.60;;
75272;SDS011;63869;52.344;16.928;2023-01-01T08:49:53;7.60;;;2.67;;
75272;SDS011;63869;52.344;16.928;2023-01-01T08:52:19;7.30;;;2.75;;
75272;SDS011;63869;52.344;16.928;2023-01-01T08:54:45;5.85;;;2.70;;
75272;SDS011;63869;52.344;16.928;2023-01-01T08:57:10;7.40;;;2.90;;
75272;SDS011;63869;52.344;16.928;2023-01-01T08:59:36;8.05;;;2.90;;
75272;SDS011;63869;52.344;16.928;2023-01-01T09:02:02;5.78;;;2.70;;
75272;SDS011;63869;52.344;16.928;2023-01-01T09:04:28;6.32;;;2.80;;
75272;SDS011;63869;52.344;16.928;2023-01-01T09:06:53;8.63;;;3.00;;
75272;SDS011;63869;52.344;16.928;2023-01-01T09:09:19;9.25;;;2.67;;
75272;SDS011;63869;52.344;16.928;2023-01-01T09:11:54;7.00;;;2.75;;
75272;SDS011;63869;52.344;16.928;2023-01-01T09:14:22;5.68;;;2.60;;
75272;SDS011;63869;52.344;16.928;2023-01-01T09:16:48;5.40;;;2.58;;
75272;SDS011;63869;52.344;16.928;2023-01-01T09:19:13;6.72;;;2.72;;
75272;SDS011;63869;52.344;16.928;2023-01-01T09:21:39;9.73;;;2.83;;
75272;SDS011;63869;52.344;16.928;2023-01-01T09:24:04;7.45;;;2.63;;
75272;SDS011;63869;52.344;16.928;2023-01-01T09:26:30;6.03;;;2.60;;
75272;SDS011;63869;52.344;16.928;2023-01-01T09:28:56;5.55;;;2.70;;
75272;SDS011;63869;52.344;16.928;2023-01-01T09:31:22;8.55;;;2.83;;
75272;SDS011;63869;52.344;16.928;2023-01-01T09:33:48;6.55;;;2.72;;
75272;SDS011;63869;52.344;16.928;2023-01-01T09:36:34;4.85;;;2.95;;
75272;SDS011;63869;52.344;16.928;2023-01-01T09:38:59;6.53;;;2.80;;
75272;SDS011;63869;52.344;16.928;2023-01-01T09:47:40;5.30;;;2.58;;
75272;SDS011;63869;52.344;16.928;2023-01-01T09:50:11;6.85;;;2.90;;
75272;SDS011;63869;52.344;16.928;2023-01-01T09:52:55;6.95;;;2.70;;
75272;SDS011;63869;52.344;16.928;2023-01-01T09:55:27;8.32;;;3.22;;
75272;SDS011;63869;52.344;16.928;2023-01-01T09:57:54;5.57;;;3.05;;
75272;SDS011;63869;52.344;16.928;2023-01-01T10:00:21;4.32;;;2.45;;
75272;SDS011;63869;52.344;16.928;2023-01-01T10:02:51;6.07;;;3.05;;
75272;SDS011;63869;52.344;16.928;2023-01-01T10:05:32;4.53;;;2.70;;
75272;SDS011;63869;52.344;16.928;2023-01-01T10:08:27;6.70;;;2.78;;
75272;SDS011;63869;52.344;16.928;2023-01-01T10:11:04;6.43;;;3.00;;
75272;SDS011;63869;52.344;16.928;2023-01-01T10:18:37;8.55;;;3.28;;
75272;SDS011;63869;52.344;16.928;2023-01-01T10:26:17;6.50;;;3.15;;
75272;SDS011;63869;52.344;16.928;2023-01-01T10:28:50;6.85;;;3.17;;
75272;SDS011;63869;52.344;16.928;2023-01-01T10:31:33;9.32;;;3.78;;
75272;SDS011;63869;52.344;16.928;2023-01-01T10:34:07;8.50;;;3.30;;
75272;SDS011;63869;52.344;16.928;2023-01-01T10:36:39;8.80;;;3.10;;
75272;SDS011;63869;52.344;16.928;2023-01-01T10:39:04;8.43;;;3.20;;
75272;SDS011;63869;52.344;16.928;2023-01-01T10:41:29;11.13;;;3.03;;
75272;SDS011;63869;52.344;16.928;2023-01-01T10:43:55;7.47;;;2.83;;
75272;SDS011;63869;52.344;16.928;2023-01-01T10:46:21;6.85;;;3.35;;
75272;SDS011;63869;52.344;16.928;2023-01-01T10:51:46;10.77;;;3.65;;
75272;SDS011;63869;52.344;16.928;2023-01-01T10:54:35;6.25;;;3.08;;
75272;SDS011;63869;52.344;16.928;2023-01-01T10:57:13;31.80;;;13.25;;
75272;SDS011;63869;52.344;16.928;2023-01-01T10:59:42;6.95;;;3.88;;
75272;SDS011;63869;52.344;16.928;2023-01-01T11:02:19;6.80;;;3.35;;
75272;SDS011;63869;52.344;16.928;2023-01-01T11:04:47;9.50;;;3.53;;
75272;SDS011;63869;52.344;16.928;2023-01-01T11:07:18;12.00;;;4.35;;
75272;SDS011;63869;52.344;16.928;2023-01-01T11:09:51;6.20;;;3.35;;
75272;SDS011;63869;52.344;16.928;2023-01-01T11:12:22;5.72;;;3.45;;
75272;SDS011;63869;52.344;16.928;2023-01-01T11:14:50;10.10;;;3.35;;
75272;SDS011;63869;52.344;16.928;2023-01-01T11:17:27;7.00;;;3.13;;
75272;SDS011;63869;52.344;16.928;2023-01-01T11:19:54;8.55;;;3.60;;
75272;SDS011;63869;52.344;16.928;2023-01-01T11:22:41;8.27;;;3.35;;
75272;SDS011;63869;52.344;16.928;2023-01-01T11:25:15;8.75;;;3.75;;
75272;SDS011;63869;52.344;16.928;2023-01-01T11:27:49;7.82;;;3.47;;
75272;SDS011;63869;52.344;16.928;2023-01-01T11:32:49;6.10;;;3.28;;
75272;SDS011;63869;52.344;16.928;2023-01-01T11:35:19;9.82;;;4.32;;
75272;SDS011;63869;52.344;16.928;2023-01-01T11:37:47;8.75;;;3.78;;
75272;SDS011;63869;52.344;16.928;2023-01-01T11:40:17;10.85;;;4.10;;
75272;SDS011;63869;52.344;16.928;2023-01-01T11:42:47;6.75;;;3.85;;
75272;SDS011;63869;52.344;16.928;2023-01-01T11:48:02;11.32;;;4.30;;
75272;SDS011;63869;52.344;16.928;2023-01-01T11:50:38;12.52;;;3.95;;
75272;SDS011;63869;52.344;16.928;2023-01-01T11:53:18;8.30;;;3.78;;
75272;SDS011;63869;52.344;16.928;2023-01-01T11:55:59;9.50;;;4.45;;
75272;SDS011;63869;52.344;16.928;2023-01-01T12:06:53;8.70;;;4.05;;
75272;SDS011;63869;52.344;16.928;2023-01-01T12:12:26;13.10;;;5.22;;
75272;SDS011;63869;52.344;16.928;2023-01-01T12:20:57;11.52;;;4.30;;
75272;SDS011;63869;52.344;16.928;2023-01-01T12:23:40;8.80;;;4.75;;
75272;SDS011;63869;52.344;16.928;2023-01-01T12:35:04;8.40;;;4.20;;
75272;SDS011;63869;52.344;16.928;2023-01-01T12:40:33;11.60;;;5.25;;
75272;SDS011;63869;52.344;16.928;2023-01-01T12:43:02;6.95;;;3.88;;
75272;SDS011;63869;52.344;16.928;2023-01-01T12:48:25;9.23;;;4.80;;
75272;SDS011;63869;52.344;16.928;2023-01-01T12:51:31;7.60;;;4.03;;
75272;SDS011;63869;52.344;16.928;2023-01-01T12:56:49;9.85;;;4.30;;
75272;SDS011;63869;52.344;16.928;2023-01-01T12:59:27;12.23;;;5.45;;
75272;SDS011;63869;52.344;16.928;2023-01-01T13:01:56;12.77;;;5.53;;
75272;SDS011;63869;52.344;16.928;2023-01-01T13:04:24;9.65;;;4.78;;
75272;SDS011;63869;52.344;16.928;2023-01-01T13:07:00;8.77;;;4.43;;
75272;SDS011;63869;52.344;16.928;2023-01-01T13:09:37;8.30;;;4.22;;
75272;SDS011;63869;52.344;16.928;2023-01-01T13:12:07;8.48;;;4.22;;
75272;SDS011;63869;52.344;16.928;2023-01-01T13:14:42;7.10;;;4.05;;
75272;SDS011;63869;52.344;16.928;2023-01-01T13:17:21;9.40;;;3.88;;
75272;SDS011;63869;52.344;16.928;2023-01-01T13:19:51;10.82;;;4.45;;
75272;SDS011;63869;52.344;16.928;2023-01-01T13:33:24;24.42;;;8.90;;
75272;SDS011;63869;52.344;16.928;2023-01-01T13:46:23;15.57;;;6.63;;
75272;SDS011;63869;52.344;16.928;2023-01-01T13:49:10;16.08;;;6.13;;
75272;SDS011;63869;52.344;16.928;2023-01-01T14:00:53;11.02;;;5.22;;
75272;SDS011;63869;52.344;16.928;2023-01-01T14:03:33;9.45;;;4.95;;
75272;SDS011;63869;52.344;16.928;2023-01-01T14:06:04;10.07;;;5.20;;
75272;SDS011;63869;52.344;16.928;2023-01-01T14:08:45;14.30;;;6.20;;
75272;SDS011;63869;52.344;16.928;2023-01-01T14:11:30;13.32;;;5.95;;
75272;SDS011;63869;52.344;16.928;2023-01-01T14:13:55;17.10;;;5.55;;
75272;SDS011;63869;52.344;16.928;2023-01-01T14:16:21;13.27;;;5.10;;
75272;SDS011;63869;52.344;16.928;2023-01-01T14:18:50;13.15;;;5.10;;
75272;SDS011;63869;52.344;16.928;2023-01-01T14:21:20;12.13;;;4.97;;
75272;SDS011;63869;52.344;16.928;2023-01-01T14:23:48;8.15;;;4.30;;
75272;SDS011;63869;52.344;16.928;2023-01-01T14:26:20;10.05;;;4.85;;
75272;SDS011;63869;52.344;16.928;2023-01-01T14:28:47;9.40;;;5.00;;
75272;SDS011;63869;52.344;16.928;2023-01-01T14:31:13;11.40;;;4.93;;
75272;SDS011;63869;52.344;16.928;2023-01-01T14:33:40;9.77;;;4.60;;
75272;SDS011;63869;52.344;16.928;2023-01-01T14:36:13;9.52;;;5.00;;
75272;SDS011;63869;52.344;16.928;2023-01-01T14:38:42;9.45;;;4.68;;
75272;SDS011;63869;52.344;16.928;2023-01-01T14:44:04;11.05;;;5.70;;
75272;SDS011;63869;52.344;16.928;2023-01-01T14:49:06;12.48;;;4.85;;
75272;SDS011;63869;52.344;16.928;2023-01-01T14:51:33;11.95;;;5.75;;
75272;SDS011;63869;52.344;16.928;2023-01-01T14:53:59;12.45;;;5.68;;
75272;SDS011;63869;52.344;16.928;2023-01-01T14:56:27;9.25;;;5.38;;
75272;SDS011;63869;52.344;16.928;2023-01-01T15:04:36;13.15;;;5.75;;
75272;SDS011;63869;52.344;16.928;2023-01-01T15:07:01;13.23;;;5.30;;
75272;SDS011;63869;52.344;16.928;2023-01-01T15:09:27;11.68;;;5.60;;
75272;SDS011;63869;52.344;16.928;2023-01-01T15:11:54;13.02;;;5.60;;
75272;SDS011;63869;52.344;16.928;2023-01-01T15:14:28;11.20;;;5.63;;
75272;SDS011;63869;52.344;16.928;2023-01-01T15:17:00;12.25;;;6.30;;
75272;SDS011;63869;52.344;16.928;2023-01-01T15:19:26;15.57;;;6.60;;
75272;SDS011;63869;52.344;16.928;2023-01-01T15:21:52;12.13;;;6.35;;
75272;SDS011;63869;52.344;16.928;2023-01-01T15:24:18;12.55;;;6.03;;
75272;SDS011;63869;52.344;16.928;2023-01-01T15:26:50;13.38;;;5.85;;
75272;SDS011;63869;52.344;16.928;2023-01-01T15:29:30;12.40;;;6.18;;
75272;SDS011;63869;52.344;16.928;2023-01-01T15:32:02;15.07;;;7.18;;
75272;SDS011;63869;52.344;16.928;2023-01-01T15:34:31;15.02;;;6.57;;
75272;SDS011;63869;52.344;16.928;2023-01-01T15:39:50;12.35;;;6.50;;
75272;SDS011;63869;52.344;16.928;2023-01-01T15:47:41;14.93;;;6.75;;
75272;SDS011;63869;52.344;16.928;2023-01-01T15:52:41;12.88;;;6.43;;
75272;SDS011;63869;52.344;16.928;2023-01-01T15:55:12;17.40;;;8.13;;
75272;SDS011;63869;52.344;16.928;2023-01-01T15:57:39;26.38;;;12.73;;
75272;SDS011;63869;52.344;16.928;2023-01-01T16:00:16;69.00;;;28.38;;
75272;SDS011;63869;52.344;16.928;2023-01-01T16:02:46;98.90;;;38.25;;
75272;SDS011;63869;52.344;16.928;2023-01-01T16:05:14;100.45;;;40.63;;
75272;SDS011;63869;52.344;16.928;2023-01-01T16:07:42;86.53;;;36.47;;
75272;SDS011;63869;52.344;16.928;2023-01-01T16:10:15;78.93;;;33.75;;
75272;SDS011;63869;52.344;16.928;2023-01-01T16:12:41;69.35;;;29.70;;
75272;SDS011;63869;52.344;16.928;2023-01-01T16:15:07;53.03;;;24.67;;
75272;SDS011;63869;52.344;16.928;2023-01-01T16:17:39;43.88;;;19.65;;
75272;SDS011;63869;52.344;16.928;2023-01-01T16:20:05;34.58;;;16.08;;
75272;SDS011;63869;52.344;16.928;2023-01-01T16:22:30;30.98;;;14.18;;
75272;SDS011;63869;52.344;16.928;2023-01-01T16:24:56;23.98;;;11.57;;
75272;SDS011;63869;52.344;16.928;2023-01-01T16:27:21;23.52;;;10.68;;
75272;SDS011;63869;52.344;16.928;2023-01-01T16:29:46;18.95;;;9.75;;
75272;SDS011;63869;52.344;16.928;2023-01-01T16:32:15;17.38;;;8.80;;
75272;SDS011;63869;52.344;16.928;2023-01-01T16:34:41;19.63;;;9.18;;
75272;SDS011;63869;52.344;16.928;2023-01-01T16:37:07;17.05;;;9.60;;
75272;SDS011;63869;52.344;16.928;2023-01-01T16:39:32;16.45;;;8.50;;
75272;SDS011;63869;52.344;16.928;2023-01-01T16:41:57;16.05;;;8.77;;
75272;SDS011;63869;52.344;16.928;2023-01-01T16:44:23;17.30;;;9.15;;
75272;SDS011;63869;52.344;16.928;2023-01-01T16:46:48;19.73;;;9.98;;
75272;SDS011;63869;52.344;16.928;2023-01-01T16:49:13;32.45;;;14.05;;
75272;SDS011;63869;52.344;16.928;2023-01-01T16:51:38;50.67;;;22.92;;
75272;SDS011;63869;52.344;16.928;2023-01-01T16:54:04;67.53;;;28.40;;
75272;SDS011;63869;52.344;16.928;2023-01-01T16:56:29;59.58;;;27.27;;
75272;SDS011;63869;52.344;16.928;2023-01-01T16:58:54;43.83;;;22.10;;
75272;SDS011;63869;52.344;16.928;2023-01-01T17:01:20;40.20;;;18.35;;
75272;SDS011;63869;52.344;16.928;2023-01-01T17:03:46;37.42;;;16.30;;